Terminal Aerodrome Forecast
Issued by NWS

Home | Current Version | Previous Version | Text Only | Print | Product List | Glossary On
Versions: 1 2 3 4 5 6 7 8 9 10 11 12 13 14
000
FTAK31 PANC 300524
TAFAVD
TAF
PAVD 300524Z 3006/3106 VRB03KT P6SM VCSH FEW045 BKN070
     FM301000 VRB03KT P6SM SCT080 BKN120
     FM302000 25008KT P6SM SCT100 SCT150
      AMD LTD TO CLD VIS AND WIND=

USA.gov is the U.S. government's official web portal to all federal, state and local government web resources and services.